• Join FlightAware (Why Join?)
  • Login
  • US Flag 
Rudolph Flight #1: Arrived! 
03:11AM EST


 

Airport Tracker/Info


-or-


 

Live Flight TrackerFlight Track Log ✈ RPA3228 ✈ 11-Sep-2013 ✈ KDCA - KBUF

Flight Track Log - Related Links

Times and Time Zones

All times are in EDT time to prevent confusion due to time zone crossing. See the RPA3228 flight status page for this flight to view local times or setup timezone preferences in your user account.

Time Position Orientation Groundspeed Altitude Reporting Facility
EDT Latitude Longitude Course Direction KTS MPH feet Rate Location/Type
10:35AM 38.7833 -77.0333 North 212 244 2,800  Level Potomac TRACON
10:37AM 39.2381 -77.1885 333° Northwest  Level Estimated
10:37AM 38.7167 -77.1833 240° Southwest 291 335 8,000  Level Potomac TRACON
10:38AM 39.3346 -77.2265 339° North  Level Estimated
10:38AM 38.7833 -77.2500 322° Northwest 313 360 10,600  Level Potomac TRACON
10:39AM 39.4311 -77.2646 339° North  Level Estimated
10:40AM 39.5146 -77.2976 North  Level Estimated
10:41AM 38.9997 -77.4186 329° Northwest 354 407 12,900  Level Washington Center
10:42AM 39.0864 -77.4661 337° Northwest 349 402 15,500 2,160 Climbing Washington Center
10:44AM 39.2731 -77.4603 North 365 420 19,100 1,800 Climbing New York Center
10:45AM 39.3753 -77.4619 359° North 365 420 20,800 1,620 Climbing New York Center
10:46AM 39.4839 -77.4586 North 370 426 22,400 1,500 Climbing New York Center
10:47AM 39.5964 -77.4586 360° North 387 445 23,900 1,380 Climbing New York Center
10:48AM 39.7114 -77.4558 North 399 459 25,200 1,020 Climbing New York Center
10:49AM 39.8261 -77.4533 North 409 471 26,000 360 Climbing New York Center
10:50AM 39.9397 -77.4722 353° North 414 476 26,000  Level New York Center
10:51AM 40.0564 -77.5133 345° North 419 482 26,000  Level New York Center
10:52AM 40.1728 -77.5572 344° North 431 496 26,000  Level New York Center
10:53AM 40.2911 -77.6014 344° North 436 502 26,000  Level New York Center
10:54AM 40.4094 -77.6458 344° North 442 509 26,000  Level New York Center
10:55AM 40.5319 -77.6908 344° North 447 514 26,000  Level New York Center
10:57AM 40.7814 -77.7889 343° North 441 507 26,000  Level Cleveland Center
10:58AM 40.8992 -77.8358 343° North 436 502 26,000  Level Cleveland Center
10:59AM 41.0172 -77.8806 344° North 436 502 26,000  Level Cleveland Center
11:00AM 41.1328 -77.9228 345° North 436 502 26,000  Level Cleveland Center
11:01AM 41.2506 -77.9703 343° North 436 502 26,000  Level Cleveland Center
11:02AM 41.3811 -78.0233 343° North 443 510 26,000 -300 Level Cleveland Center
11:03AM 41.4989 -78.0686 344° North 443 510 25,400 -1,200 Descending Cleveland Center
11:04AM 41.6125 -78.1142 343° North 438 504 23,700 -1,680 Descending Cleveland Center
11:05AM 41.7261 -78.1597 343° North 432 497 22,100 -1,620 Descending Cleveland Center
11:06AM 41.8311 -78.2006 344° North 413 475 20,500 -1,560 Descending Cleveland Center
11:07AM 41.9364 -78.2469 342° North 401 461 19,000 -1,560 Descending Cleveland Center
11:08AM 42.0392 -78.2878 344° North 396 456 17,400 -1,560 Descending Cleveland Center
11:09AM 42.1381 -78.3261 344° North 376 433 15,900 -1,620 Descending Cleveland Center
11:10AM 42.2389 -78.3647 344° North 376 433 14,200 -1,680 Descending Cleveland Center
11:11AM 42.3353 -78.4033 344° North 371 427 12,600 -1,560 Descending Cleveland Center
11:12AM 42.4300 -78.4425 343° North 366 421 11,100 -1,500 Descending Cleveland Center
11:13AM 42.5139 -78.4733 345° North 338 389 9,700 -1,560 Descending Cleveland Center
11:14AM 42.5936 -78.5075 342° North 313 360 8,000 -1,740 Descending Cleveland Center
11:15AM 42.6714 -78.5444 341° North 295 339 6,300 -1,680 Descending Cleveland Center
11:16AM 42.7467 -78.5447 360° North 281 323 4,700 -1,200 Descending Cleveland Center
11:17AM 42.8153 -78.5369 North 271 312 4,000 -660 Descending Cleveland Center
11:18AM 42.8964 -78.5314 North 264 304 3,400 -900 Descending Cleveland Center
11:19AM 42.9589 -78.5264 North 240 276 2,300 -480 Descending Cleveland Center
11:20AM 43.0167 -78.5833 324° Northwest 165 190 2,300 -120 Level Buffalo TRACON
11:21AM 43.0000 -78.6500 251° West 146 168 2,100 -420 Descending Buffalo TRACON
11:22AM 42.9833 -78.6833 236° Southwest 110 127 1,500 -600 Descending Buffalo TRACON
11:23AM 42.9500 -78.7167 216° Southwest 107 123 900 -600 Descending Buffalo TRACON
11:25AM 42.9333 -78.7167 216° Southwest  Level FlightAware Approximate